Time;durP1;ratioP1;P1;durP2;ratioP2;P2;SDS_P1;SDS_P2;PMS_P1;PMS_P2;Temp;Humidity;BMP_temperature;BMP_pressure;BME280_temperature;BME280_humidity;BME280_pressure;Samples;Min_cycle;Max_cycle;Signal;HPM_P1;HPM_P2
2021/05/01 00:01:54;;;;;;;46.78;29.63;;;7.90;81.90;;;;;;5094873;28;20028;-36
2021/05/01 00:04:20;;;;;;;43.33;29.17;;;7.80;82.00;;;;;;5095559;28;20046;-36
2021/05/01 00:06:45;;;;;;;51.53;32.17;;;7.90;82.00;;;;;;5094295;28;20020;-36
2021/05/01 00:09:11;;;;;;;48.38;30.33;;;8.00;81.70;;;;;;5093809;28;20024;-35
2021/05/01 00:11:37;;;;;;;44.40;27.92;;;7.90;82.20;;;;;;5095917;28;20095;-36
2021/05/01 00:14:03;;;;;;;39.38;26.73;;;7.80;82.40;;;;;;5096997;28;20024;-35
2021/05/01 00:16:29;;;;;;;45.28;29.42;;;8.00;82.40;;;;;;5096422;28;20031;-36
2021/05/01 00:18:55;;;;;;;50.00;30.45;;;8.10;81.90;;;;;;5093173;28;20391;-36
2021/05/01 00:21:21;;;;;;;43.25;29.63;;;8.20;81.40;;;;;;5093135;28;20111;-36
2021/05/01 00:23:47;;;;;;;48.60;29.63;;;8.20;81.00;;;;;;5093237;28;20024;-40
2021/05/01 00:26:12;;;;;;;43.08;27.60;;;7.90;81.50;;;;;;5093231;28;20496;-35
2021/05/01 00:28:39;;;;;;;39.63;26.95;;;7.80;82.70;;;;;;5093254;28;20476;-35
2021/05/01 00:31:06;;;;;;;45.20;28.80;;;7.70;83.20;;;;;;5093491;28;20069;-34
2021/05/01 00:33:32;;;;;;;43.75;29.35;;;7.80;82.80;;;;;;5093180;28;20028;-36
2021/05/01 00:35:58;;;;;;;42.08;29.15;;;8.00;82.50;;;;;;5095157;28;20026;-36
2021/05/01 00:38:24;;;;;;;40.92;30.40;;;8.00;82.40;;;;;;5097407;28;20031;-35
2021/05/01 00:40:50;;;;;;;46.03;29.48;;;8.00;82.30;;;;;;5096304;28;20028;-37
2021/05/01 00:43:15;;;;;;;42.63;30.92;;;8.10;82.20;;;;;;5097142;28;20081;-36
2021/05/01 00:45:42;;;;;;;44.72;29.98;;;7.90;82.80;;;;;;5097218;28;20386;-35
2021/05/01 00:48:07;;;;;;;50.35;31.23;;;8.00;82.80;;;;;;5097398;28;20026;-36
2021/05/01 00:50:36;;;;;;;53.17;32.28;;;7.90;82.90;;;;;;5097228;28;20052;-37
2021/05/01 00:53:03;;;;;;;46.17;31.15;;;7.80;83.80;;;;;;5097071;28;20020;-36
2021/05/01 00:55:29;;;;;;;52.58;32.72;;;7.80;83.80;;;;;;5096963;28;20039;-36
2021/05/01 00:57:55;;;;;;;54.58;32.85;;;7.70;84.50;;;;;;5096967;28;20485;-35
2021/05/01 01:03:06;;;;;;;53.17;31.27;;;7.80;84.80;;;;;;5096705;28;20039;-36
2021/05/01 01:05:32;;;;;;;51.38;32.95;;;7.90;84.50;;;;;;5096372;28;20057;-36
2021/05/01 01:07:57;;;;;;;51.05;32.55;;;8.10;84.30;;;;;;5096804;28;20529;-36
2021/05/01 01:10:23;;;;;;;51.97;31.05;;;8.20;84.00;;;;;;5096774;28;20023;-42
2021/05/01 01:12:49;;;;;;;47.63;31.40;;;8.10;84.40;;;;;;5096161;28;20026;-35
2021/05/01 01:15:26;;;;;;;49.85;31.48;;;8.10;85.00;;;;;;5096835;28;20032;-36
2021/05/01 01:17:52;;;;;;;47.80;31.33;;;8.00;85.20;;;;;;5096345;28;20024;-36
2021/05/01 01:20:19;;;;;;;53.65;31.00;;;8.00;85.40;;;;;;5096207;28;20069;-35
2021/05/01 01:22:45;;;;;;;52.35;33.03;;;8.00;85.60;;;;;;5096053;28;20024;-35
2021/05/01 01:25:11;;;;;;;58.10;33.20;;;7.90;85.90;;;;;;5095882;28;20035;-36
2021/05/01 01:27:38;;;;;;;51.03;31.80;;;8.00;85.80;;;;;;5096459;28;20024;-36
2021/05/01 01:30:06;;;;;;;55.03;35.15;;;7.80;86.30;;;;;;5096724;28;20024;-35
2021/05/01 01:32:32;;;;;;;57.28;36.38;;;7.80;86.60;;;;;;5094711;28;20095;-36
2021/05/01 01:34:58;;;;;;;56.45;35.00;;;7.90;86.40;;;;;;5095785;28;20070;-36
2021/05/01 01:37:23;;;;;;;63.35;38.90;;;8.10;86.30;;;;;;5096108;28;20408;-35
2021/05/01 01:39:52;;;;;;;59.95;38.17;;;8.10;86.10;;;;;;5095638;28;20024;-35
2021/05/01 01:42:18;;;;;;;64.47;40.90;;;8.00;86.60;;;;;;5095759;28;20099;-36
2021/05/01 01:44:44;;;;;;;76.60;45.28;;;7.90;87.10;;;;;;5095823;28;20115;-37
2021/05/01 01:47:09;;;;;;;69.13;44.25;;;8.00;87.10;;;;;;5093355;28;20027;-35
2021/05/01 01:49:38;;;;;;;75.60;43.13;;;8.00;87.50;;;;;;5095496;28;20055;-37
2021/05/01 01:52:04;;;;;;;64.88;40.83;;;8.00;86.90;;;;;;5095704;28;20494;-35
2021/05/01 01:54:29;;;;;;;69.18;44.38;;;8.00;87.40;;;;;;5095461;28;20028;-35
2021/05/01 01:56:58;;;;;;;68.82;41.63;;;8.10;87.10;;;;;;5095555;28;20054;-36
2021/05/01 01:59:24;;;;;;;65.05;40.38;;;8.10;87.30;;;;;;5096295;28;20474;-35
2021/05/01 02:01:50;;;;;;;65.85;41.58;;;8.10;87.30;;;;;;5094284;28;20031;-35
2021/05/01 02:04:15;;;;;;;65.45;41.03;;;7.90;88.00;;;;;;5095480;28;20058;-36
2021/05/01 02:06:42;;;;;;;67.80;40.13;;;7.90;87.90;;;;;;5095203;28;20024;-36
2021/05/01 02:09:08;;;;;;;62.53;38.40;;;7.80;87.70;;;;;;5093582;28;20024;-35
2021/05/01 02:11:34;;;;;;;67.43;40.38;;;8.00;87.60;;;;;;5095040;28;20020;-35
2021/05/01 02:13:59;;;;;;;62.63;39.35;;;7.90;87.60;;;;;;5095017;28;20046;-36
2021/05/01 02:16:25;;;;;;;63.30;38.25;;;7.80;87.90;;;;;;5093642;28;20020;-35
2021/05/01 02:18:50;;;;;;;63.55;41.30;;;7.80;88.30;;;;;;5094838;28;20028;-35
2021/05/01 02:21:16;;;;;;;67.85;41.97;;;7.80;87.90;;;;;;5094615;28;20072;-35
2021/05/01 02:23:42;;;;;;;69.03;42.08;;;7.80;87.80;;;;;;5094846;28;20483;-35
2021/05/01 02:26:07;;;;;;;71.47;40.55;;;7.80;87.40;;;;;;5094750;28;20048;-36
2021/05/01 02:28:33;;;;;;;68.25;40.80;;;7.80;87.40;;;;;;5094690;28;20042;-35
2021/05/01 02:30:58;;;;;;;72.20;43.20;;;7.70;87.70;;;;;;5094578;28;20356;-36
2021/05/01 02:33:24;;;;;;;70.30;41.75;;;7.80;87.30;;;;;;5093069;28;20024;-35
2021/05/01 02:35:50;;;;;;;67.75;40.63;;;7.80;87.40;;;;;;5094388;28;20029;-35
2021/05/01 02:38:16;;;;;;;68.15;40.88;;;7.80;87.10;;;;;;5094329;28;20020;-36
2021/05/01 02:40:41;;;;;;;65.07;38.70;;;7.90;86.60;;;;;;5094441;28;20016;-35
2021/05/01 02:43:09;;;;;;;65.20;40.17;;;7.80;87.00;;;;;;5094822;28;20020;-35
2021/05/01 02:45:36;;;;;;;66.82;39.78;;;7.80;87.30;;;;;;5094574;28;20027;-35
2021/05/01 02:48:03;;;;;;;75.15;41.88;;;7.70;87.40;;;;;;5094640;28;20024;-35
2021/05/01 02:50:29;;;;;;;71.18;41.40;;;7.60;87.80;;;;;;5094895;28;20083;-35
2021/05/01 02:52:54;;;;;;;64.05;39.10;;;7.70;87.70;;;;;;5094607;28;20064;-35
2021/05/01 02:55:20;;;;;;;67.60;41.08;;;7.80;87.60;;;;;;5094304;28;20077;-35
2021/05/01 02:57:49;;;;;;;64.47;39.92;;;7.80;86.90;;;;;;5094801;28;20089;-35
2021/05/01 03:00:17;;;;;;;61.17;38.22;;;7.60;87.80;;;;;;5094457;28;20020;-35
2021/05/01 03:02:43;;;;;;;69.50;41.13;;;7.40;88.60;;;;;;5094281;28;20023;-35
2021/05/01 03:05:10;;;;;;;71.45;41.85;;;7.50;88.30;;;;;;5094052;28;20103;-35
2021/05/01 03:07:36;;;;;;;66.72;41.75;;;7.60;88.10;;;;;;5094131;28;20020;-35
2021/05/01 03:10:06;;;;;;;67.05;40.78;;;7.60;87.90;;;;;;5094113;28;20376;-36
2021/05/01 03:12:32;;;;;;;67.82;41.35;;;7.70;87.70;;;;;;5094137;28;20031;-35
2021/05/01 03:14:58;;;;;;;64.38;37.58;;;7.80;87.20;;;;;;5094044;28;20032;-35
2021/05/01 03:17:24;;;;;;;60.22;34.88;;;7.80;86.90;;;;;;5093745;28;20035;-36
2021/05/01 03:19:49;;;;;;;72.38;40.80;;;7.70;87.40;;;;;;5094389;28;20529;-36
2021/05/01 03:22:15;;;;;;;67.45;40.70;;;7.80;87.00;;;;;;5093776;28;20035;-36
2021/05/01 03:24:41;;;;;;;65.60;38.78;;;7.90;86.70;;;;;;5092479;28;20024;-35
2021/05/01 03:27:07;;;;;;;68.80;40.75;;;7.80;86.70;;;;;;5093714;28;20058;-35
2021/05/01 03:29:33;;;;;;;62.17;38.42;;;7.60;87.20;;;;;;5093939;28;20013;-35
2021/05/01 03:31:59;;;;;;;63.83;39.42;;;7.50;87.70;;;;;;5093778;28;20028;-34
2021/05/01 03:34:24;;;;;;;69.97;40.53;;;7.50;88.20;;;;;;5093665;28;20038;-34
2021/05/01 03:36:50;;;;;;;71.60;42.55;;;7.50;88.00;;;;;;5093571;28;20062;-35
2021/05/01 03:39:16;;;;;;;78.72;44.85;;;7.70;87.80;;;;;;5093880;28;20107;-35
2021/05/01 03:41:43;;;;;;;73.18;41.97;;;7.70;87.60;;;;;;5093884;28;20054;-34
2021/05/01 03:44:10;;;;;;;75.00;44.03;;;7.50;87.70;;;;;;5093769;28;20032;-34
2021/05/01 03:46:35;;;;;;;67.95;39.45;;;7.40;88.60;;;;;;5093513;28;20020;-35
2021/05/01 03:49:01;;;;;;;71.03;40.00;;;7.50;88.20;;;;;;5093291;28;20073;-35
2021/05/01 03:51:27;;;;;;;65.90;38.70;;;7.30;88.60;;;;;;5094047;28;20020;-34
2021/05/01 03:53:52;;;;;;;65.55;38.90;;;7.30;88.80;;;;;;5093492;28;20028;-34
2021/05/01 03:56:18;;;;;;;67.18;40.75;;;7.10;89.50;;;;;;5093685;28;20026;-34
2021/05/01 03:58:44;;;;;;;70.18;41.63;;;7.20;89.50;;;;;;5093569;28;20030;-35
2021/05/01 04:01:10;;;;;;;66.22;42.47;;;7.30;88.40;;;;;;5091948;28;20031;-35
2021/05/01 04:03:35;;;;;;;73.47;44.75;;;7.50;88.30;;;;;;5092061;28;20032;-35
2021/05/01 04:06:02;;;;;;;68.90;40.35;;;7.70;87.50;;;;;;5093617;28;20023;-35
2021/05/01 04:08:27;;;;;;;68.05;42.65;;;7.70;87.40;;;;;;5093533;28;20100;-35
2021/05/01 04:10:53;;;;;;;63.25;40.20;;;7.50;87.70;;;;;;5096466;28;20447;-35
2021/05/01 04:13:19;;;;;;;72.80;41.28;;;7.50;87.80;;;;;;5100002;28;20468;-35
2021/05/01 04:15:45;;;;;;;63.83;40.58;;;7.50;88.00;;;;;;5099963;28;20020;-35
2021/05/01 04:18:14;;;;;;;70.72;41.22;;;7.50;88.00;;;;;;5099878;28;20542;-35
2021/05/01 04:20:43;;;;;;;72.60;41.20;;;7.40;88.10;;;;;;5100176;28;20577;-35
2021/05/01 04:23:09;;;;;;;60.72;37.30;;;7.60;87.40;;;;;;5098618;28;20439;-35
2021/05/01 04:25:36;;;;;;;62.45;38.47;;;7.30;88.30;;;;;;5100041;28;20052;-35
2021/05/01 04:28:02;;;;;;;61.90;37.85;;;7.30;88.20;;;;;;5098628;28;20069;-35
2021/05/01 04:30:28;;;;;;;67.28;39.90;;;7.40;87.60;;;;;;5099879;28;20095;-35
2021/05/01 04:32:54;;;;;;;64.65;36.70;;;7.60;86.90;;;;;;5100125;28;20028;-35
2021/05/01 04:35:19;;;;;;;66.05;38.55;;;7.50;86.90;;;;;;5098453;28;20061;-35
2021/05/01 04:37:45;;;;;;;62.45;38.65;;;7.50;86.80;;;;;;5099995;28;20039;-34
2021/05/01 04:40:11;;;;;;;67.03;40.83;;;7.50;87.00;;;;;;5099782;28;20028;-34
2021/05/01 04:42:42;;;;;;;60.05;37.03;;;7.50;86.90;;;;;;5099903;28;20467;-35
2021/05/01 04:45:08;;;;;;;57.92;36.22;;;7.50;86.90;;;;;;5100477;28;20043;-35
2021/05/01 04:47:34;;;;;;;58.78;36.35;;;7.40;87.00;;;;;;5099911;28;20086;-35
2021/05/01 04:49:59;;;;;;;64.88;39.47;;;7.30;86.90;;;;;;5098176;28;20122;-35
2021/05/01 04:52:25;;;;;;;61.78;36.97;;;7.30;87.10;;;;;;5100104;28;20099;-35
2021/05/01 04:54:53;;;;;;;63.40;37.15;;;7.20;87.50;;;;;;5099497;28;20099;-35
2021/05/01 04:57:19;;;;;;;66.35;38.40;;;7.20;87.00;;;;;;5099499;28;20024;-35
2021/05/01 04:59:45;;;;;;;66.10;36.08;;;7.00;87.00;;;;;;5099824;28;20048;-35
2021/05/01 05:02:11;;;;;;;65.40;39.53;;;7.20;86.90;;;;;;5099528;28;20498;-37
2021/05/01 05:04:36;;;;;;;61.90;36.55;;;7.20;86.80;;;;;;5099485;28;20031;-35
2021/05/01 05:07:02;;;;;;;67.22;38.75;;;7.30;86.10;;;;;;5099488;28;20024;-35
2021/05/01 05:09:28;;;;;;;70.43;40.17;;;7.20;86.00;;;;;;5099433;28;20020;-36
2021/05/01 05:11:53;;;;;;;71.95;38.95;;;7.00;86.80;;;;;;5099607;28;20107;-36
2021/05/01 05:14:19;;;;;;;60.53;37.03;;;6.90;87.20;;;;;;5099469;28;20036;-35
2021/05/01 05:16:44;;;;;;;68.90;39.20;;;6.90;87.60;;;;;;5099340;28;20028;-36
2021/05/01 05:19:10;;;;;;;65.07;39.83;;;7.00;87.30;;;;;;5099332;28;20365;-35
2021/05/01 05:21:36;;;;;;;65.32;40.15;;;7.00;87.30;;;;;;5096855;28;20020;-35
2021/05/01 05:24:06;;;;;;;67.97;38.60;;;6.90;87.60;;;;;;5094220;28;20024;-35
2021/05/01 05:26:31;;;;;;;69.00;43.23;;;6.90;87.80;;;;;;5096606;28;20499;-35
2021/05/01 05:28:57;;;;;;;67.47;38.00;;;7.00;87.80;;;;;;5096380;28;20054;-36
2021/05/01 05:31:23;;;;;;;65.63;38.03;;;6.90;87.50;;;;;;5096410;28;20020;-36
2021/05/01 05:33:49;;;;;;;69.50;42.25;;;6.70;88.40;;;;;;5096321;28;20443;-35
2021/05/01 05:36:15;;;;;;;66.68;39.22;;;7.00;87.70;;;;;;5095915;28;20020;-35
2021/05/01 05:38:40;;;;;;;63.47;39.35;;;7.10;87.20;;;;;;5095894;28;20103;-35
2021/05/01 05:41:06;;;;;;;67.35;39.47;;;7.10;87.20;;;;;;5095886;28;20035;-35
2021/05/01 05:43:34;;;;;;;70.45;42.15;;;7.20;87.30;;;;;;5095895;28;20055;-35
2021/05/01 05:46:11;;;;;;;65.20;40.92;;;7.00;87.10;;;;;;5095782;28;20012;-35
2021/05/01 05:48:37;;;;;;;60.65;38.10;;;7.00;87.50;;;;;;5095785;28;20059;-36
2021/05/01 05:51:06;;;;;;;71.03;41.25;;;7.20;86.50;;;;;;5095937;28;20111;-35
2021/05/01 05:53:32;;;;;;;69.15;39.40;;;7.30;85.90;;;;;;5094681;28;20024;-34
2021/05/01 05:55:58;;;;;;;71.70;39.33;;;7.30;85.90;;;;;;5095799;28;20487;-34
2021/05/01 05:58:24;;;;;;;60.40;38.53;;;7.10;86.50;;;;;;5095783;28;20024;-34
2021/05/01 06:00:50;;;;;;;62.03;37.20;;;7.10;86.40;;;;;;5095468;28;20035;-34
2021/05/01 06:03:16;;;;;;;63.33;39.38;;;7.20;86.30;;;;;;5095659;28;20472;-34
2021/05/01 06:05:45;;;;;;;74.43;39.95;;;7.30;85.60;;;;;;5095354;28;20096;-34
2021/05/01 06:08:12;;;;;;;64.55;38.25;;;7.30;85.90;;;;;;5096897;28;20024;-35
2021/05/01 06:10:39;;;;;;;58.55;37.45;;;7.40;85.30;;;;;;5095746;28;20025;-35
2021/05/01 06:13:07;;;;;;;59.25;33.25;;;7.60;84.40;;;;;;5096745;28;20024;-35
2021/05/01 06:15:33;;;;;;;63.35;34.65;;;7.50;84.00;;;;;;5095483;28;20036;-35
2021/05/01 06:18:00;;;;;;;62.92;35.55;;;7.50;84.40;;;;;;5095097;28;20020;-35
2021/05/01 06:20:27;;;;;;;54.72;32.83;;;7.30;85.10;;;;;;5095440;28;20020;-35
2021/05/01 06:22:53;;;;;;;53.75;33.97;;;7.50;84.70;;;;;;5095185;28;20028;-35
2021/05/01 06:25:19;;;;;;;54.42;33.63;;;7.60;83.30;;;;;;5095369;28;20028;-34
2021/05/01 06:27:46;;;;;;;51.00;28.95;;;7.90;82.90;;;;;;5094673;28;20028;-34
2021/05/01 06:30:13;;;;;;;46.97;30.90;;;7.80;82.90;;;;;;5095126;28;20021;-34
2021/05/01 06:32:39;;;;;;;52.22;29.92;;;8.00;82.50;;;;;;5095299;28;20024;-35
2021/05/01 06:35:06;;;;;;;43.17;28.08;;;8.00;82.40;;;;;;5094308;28;20028;-35
2021/05/01 06:37:32;;;;;;;42.88;25.80;;;8.00;82.50;;;;;;5094781;28;20110;-34
2021/05/01 06:40:06;;;;;;;48.83;27.40;;;7.90;82.60;;;;;;5094928;28;20476;-37
2021/05/01 06:42:36;;;;;;;42.95;27.95;;;7.90;82.40;;;;;;5094706;28;20109;-35
2021/05/01 06:45:08;;;;;;;41.20;27.70;;;8.20;81.30;;;;;;5095461;28;20016;-35
2021/05/01 06:47:38;;;;;;;48.90;26.75;;;8.10;81.20;;;;;;5094774;28;20115;-35
2021/05/01 06:50:09;;;;;;;43.25;24.35;;;8.30;80.50;;;;;;5094355;28;20403;-35
2021/05/01 06:52:46;;;;;;;31.90;22.08;;;8.30;79.60;;;;;;5094554;28;20074;-34
2021/05/01 06:55:17;;;;;;;38.40;22.83;;;8.40;79.00;;;;;;5094374;28;20476;-35
2021/05/01 06:57:48;;;;;;;38.55;24.30;;;8.50;78.60;;;;;;5094671;28;20028;-35
2021/05/01 07:00:16;;;;;;;32.53;21.35;;;8.90;74.70;;;;;;5092886;28;20547;-35
2021/05/01 07:02:46;;;;;;;33.90;19.80;;;8.80;74.80;;;;;;5094748;28;20039;-35
2021/05/01 07:05:15;;;;;;;34.75;18.85;;;8.70;74.60;;;;;;5095000;28;20357;-36
2021/05/01 07:07:41;;;;;;;34.53;19.08;;;8.80;74.00;;;;;;5094365;28;20023;-35
2021/05/01 07:10:08;;;;;;;30.90;20.80;;;9.00;73.50;;;;;;5094104;28;20016;-35
2021/05/01 07:12:35;;;;;;;30.67;20.80;;;9.20;73.10;;;;;;5094036;28;20027;-35
2021/05/01 07:15:20;;;;;;;30.90;18.55;;;9.00;73.90;;;;;;5093918;28;20073;-35
2021/05/01 07:17:49;;;;;;;30.30;20.08;;;8.90;73.90;;;;;;5094075;28;20028;-38
2021/05/01 07:20:15;;;;;;;28.40;18.27;;;9.10;72.80;;;;;;5094392;28;20028;-35
2021/05/01 07:22:42;;;;;;;25.35;16.27;;;9.30;70.30;;;;;;5093865;28;20030;-35
2021/05/01 07:25:11;;;;;;;30.42;18.98;;;9.30;69.80;;;;;;5093248;28;20024;-35
2021/05/01 07:27:52;;;;;;;27.10;17.27;;;9.50;68.80;;;;;;5092115;28;20024;-35
2021/05/01 07:30:19;;;;;;;26.80;16.85;;;9.40;69.10;;;;;;5093485;28;20016;-34
2021/05/01 07:32:48;;;;;;;26.85;15.73;;;9.30;69.30;;;;;;5093919;28;20020;-40
2021/05/01 07:35:17;;;;;;;24.25;13.70;;;9.00;69.60;;;;;;5093177;28;20059;-35
2021/05/01 07:37:45;;;;;;;20.02;11.75;;;9.30;68.00;;;;;;5093164;28;20483;-36
2021/05/01 07:40:12;;;;;;;18.58;10.85;;;9.50;67.40;;;;;;5093094;28;20372;-35
2021/05/01 07:42:41;;;;;;;17.85;10.85;;;9.50;66.70;;;;;;5093352;28;20028;-36
2021/05/01 07:45:10;;;;;;;19.27;10.00;;;9.20;67.90;;;;;;5092965;28;20016;-36
2021/05/01 07:47:36;;;;;;;17.02;10.98;;;9.30;68.30;;;;;;5093568;28;20047;-36
2021/05/01 07:50:03;;;;;;;18.33;11.05;;;9.80;66.60;;;;;;5093277;28;20032;-36
2021/05/01 07:52:31;;;;;;;14.35;9.43;;;9.60;64.80;;;;;;5093483;28;20030;-37
2021/05/01 07:54:58;;;;;;;12.85;7.93;;;9.40;63.90;;;;;;5093981;28;20031;-38
2021/05/01 07:57:24;;;;;;;13.38;8.57;;;9.40;62.80;;;;;;5095177;28;20451;-35
2021/05/01 07:59:50;;;;;;;13.57;8.73;;;9.40;62.20;;;;;;5093599;28;20060;-36
2021/05/01 08:02:15;;;;;;;16.02;9.75;;;9.60;62.20;;;;;;5093626;28;20032;-35
2021/05/01 08:04:41;;;;;;;14.00;10.65;;;10.20;61.20;;;;;;5093315;28;20028;-35
2021/05/01 08:07:07;;;;;;;14.20;8.32;;;11.10;57.90;;;;;;5093394;28;20064;-35
2021/05/01 08:09:32;;;;;;;13.20;9.57;;;11.80;54.00;;;;;;5093345;28;20078;-36
2021/05/01 08:11:58;;;;;;;16.65;9.52;;;12.20;53.30;;;;;;5093443;28;20567;-36
2021/05/01 08:14:24;;;;;;;12.05;8.93;;;12.40;51.40;;;;;;5093424;28;20035;-35
2021/05/01 08:16:49;;;;;;;10.98;8.80;;;11.80;53.30;;;;;;5093609;28;20060;-35
2021/05/01 08:19:15;;;;;;;12.55;9.20;;;12.20;52.80;;;;;;5093306;28;20032;-37
2021/05/01 08:21:41;;;;;;;14.63;8.98;;;12.50;51.60;;;;;;5093449;28;20081;-37
2021/05/01 08:24:07;;;;;;;15.65;9.73;;;12.30;51.80;;;;;;5093304;28;20024;-35
2021/05/01 08:26:33;;;;;;;15.18;10.20;;;12.10;52.30;;;;;;5093342;28;20071;-35
2021/05/01 08:28:59;;;;;;;11.68;7.80;;;11.80;53.20;;;;;;5093115;28;20102;-35
2021/05/01 08:31:25;;;;;;;12.05;9.30;;;12.30;50.80;;;;;;5093175;28;20024;-37
2021/05/01 08:33:51;;;;;;;12.80;8.07;;;12.30;50.30;;;;;;5092930;28;20028;-35
2021/05/01 08:36:17;;;;;;;12.43;8.40;;;12.50;49.10;;;;;;5093209;28;20027;-34
2021/05/01 08:38:43;;;;;;;10.05;6.80;;;13.80;46.10;;;;;;5092948;28;20016;-34
2021/05/01 08:41:10;;;;;;;13.50;7.38;;;13.90;44.90;;;;;;5092827;28;20039;-35
2021/05/01 08:43:35;;;;;;;12.98;7.68;;;13.70;45.70;;;;;;5093114;28;20024;-35
2021/05/01 08:46:01;;;;;;;14.15;7.28;;;13.40;46.50;;;;;;5092933;28;20020;-36
2021/05/01 08:48:28;;;;;;;9.13;7.82;;;13.20;46.80;;;;;;5092777;28;20060;-36
2021/05/01 08:51:00;;;;;;;13.35;8.52;;;13.30;46.70;;;;;;5092725;28;20074;-34
2021/05/01 08:53:26;;;;;;;13.27;8.57;;;13.50;46.20;;;;;;5092959;28;20024;-37
2021/05/01 08:55:52;;;;;;;14.55;8.38;;;12.50;47.90;;;;;;5092950;28;20379;-36
2021/05/01 08:58:18;;;;;;;12.80;8.02;;;12.00;49.90;;;;;;5096705;28;20063;-37
2021/05/01 09:00:47;;;;;;;17.42;8.30;;;11.90;50.00;;;;;;5096976;28;20309;-35
2021/05/01 09:03:14;;;;;;;16.75;8.13;;;12.40;48.40;;;;;;5095407;28;20028;-35
2021/05/01 09:05:41;;;;;;;11.35;7.80;;;12.40;48.80;;;;;;5096516;28;20028;-35
2021/05/01 09:08:09;;;;;;;14.90;8.30;;;11.30;51.70;;;;;;5096742;28;20024;-37
2021/05/01 09:10:46;;;;;;;15.82;8.68;;;11.00;53.10;;;;;;5096372;28;20047;-35
2021/05/01 09:13:19;;;;;;;11.30;8.20;;;11.80;50.60;;;;;;5095105;28;20048;-38
2021/05/01 09:16:06;;;;;;;10.80;8.38;;;13.30;46.10;;;;;;5096656;28;20052;-35
2021/05/01 09:18:58;;;;;;;10.23;7.88;;;13.90;42.70;;;;;;5096339;28;20096;-35
2021/05/01 09:21:28;;;;;;;12.05;8.05;;;14.30;41.60;;;;;;5095856;28;20031;-36
2021/05/01 09:23:54;;;;;;;10.68;7.95;;;14.80;40.20;;;;;;5095910;28;20031;-36
2021/05/01 09:26:41;;;;;;;15.13;8.40;;;13.60;42.90;;;;;;5095928;28;20024;-36
2021/05/01 09:29:07;;;;;;;13.27;9.32;;;13.00;45.30;;;;;;5094726;28;20027;-36
2021/05/01 09:31:44;;;;;;;13.43;9.25;;;12.80;45.30;;;;;;5095751;28;20024;-36
2021/05/01 09:34:10;;;;;;;14.38;8.55;;;12.10;47.30;;;;;;5095639;28;20031;-36
2021/05/01 09:36:36;;;;;;;10.27;8.18;;;11.80;47.50;;;;;;5095706;28;20024;-36
2021/05/01 09:39:02;;;;;;;13.50;8.57;;;11.30;48.80;;;;;;5096027;28;20491;-36
2021/05/01 09:41:33;;;;;;;11.02;6.80;;;12.00;46.20;;;;;;5095546;28;20046;-36
2021/05/01 09:44:06;;;;;;;;;;;13.20;42.70;;;;;;5096458;28;20035;-35
2021/05/01 09:46:38;;;;;;;18.33;8.20;;;13.60;41.70;;;;;;5097292;28;19947;-38
2021/05/01 09:49:15;;;;;;;11.95;7.47;;;14.10;40.80;;;;;;5095911;28;20135;-36
2021/05/01 09:51:56;;;;;;;9.32;7.18;;;14.90;38.90;;;;;;5095795;28;20028;-36
2021/05/01 09:54:28;;;;;;;;;;;14.50;39.30;;;;;;5095983;28;20028;-35
2021/05/01 09:56:56;;;;;;;7.55;6.03;;;13.00;40.80;;;;;;5095254;28;19994;-36
2021/05/01 09:59:40;;;;;;;7.30;4.80;;;13.30;39.10;;;;;;5095935;28;20032;-36
2021/05/01 10:02:07;;;;;;;7.65;5.57;;;13.00;38.00;;;;;;5095702;28;20025;-36
2021/05/01 10:04:33;;;;;;;8.48;4.97;;;13.80;36.90;;;;;;5094996;28;20472;-36
2021/05/01 10:07:01;;;;;;;7.35;4.53;;;14.80;34.00;;;;;;5095274;28;20013;-37
2021/05/01 10:09:35;;;;;;;8.25;5.53;;;15.20;32.90;;;;;;5092899;28;20024;-36
2021/05/01 10:12:06;;;;;;;8.77;6.40;;;16.30;33.20;;;;;;5095300;28;20034;-36
2021/05/01 10:14:39;;;;;;;7.50;6.68;;;15.70;35.80;;;;;;5095487;28;20107;-36
2021/05/01 10:17:05;;;;;;;7.88;5.70;;;16.80;33.80;;;;;;5094940;28;20028;-36
2021/05/01 10:19:53;;;;;;;10.65;6.90;;;16.00;33.60;;;;;;5094515;28;20055;-36
2021/05/01 10:22:39;;;;;;;9.25;5.95;;;13.50;39.70;;;;;;5094508;28;20024;-36
2021/05/01 10:25:26;;;;;;;7.65;6.85;;;13.70;39.30;;;;;;5095052;28;20066;-36
2021/05/01 10:28:03;;;;;;;9.48;5.75;;;13.00;40.70;;;;;;5094863;28;20487;-36
2021/05/01 10:30:39;;;;;;;8.68;5.38;;;13.50;39.30;;;;;;5095370;28;20035;-37
2021/05/01 10:33:16;;;;;;;7.60;5.80;;;15.30;35.60;;;;;;5095128;28;20103;-36
2021/05/01 10:36:01;;;;;;;5.20;4.70;;;16.70;32.70;;;;;;5095226;28;20028;-36
2021/05/01 10:38:27;;;;;;;6.07;4.32;;;17.10;32.40;;;;;;5095356;28;20028;-37
2021/05/01 10:40:56;;;;;;;6.90;4.35;;;17.20;29.40;;;;;;5095032;28;20028;-36
2021/05/01 10:43:24;;;;;;;5.95;5.15;;;16.30;31.20;;;;;;5094722;28;20051;-35
2021/05/01 10:46:05;;;;;;;8.10;4.32;;;16.20;30.50;;;;;;5094693;28;20035;-35
2021/05/01 10:48:44;;;;;;;6.00;3.42;;;16.80;29.60;;;;;;5094858;28;20490;-38
2021/05/01 10:51:11;;;;;;;4.63;4.10;;;16.20;29.90;;;;;;5093185;28;20055;-38
2021/05/01 10:53:38;;;;;;;7.40;4.35;;;15.90;30.40;;;;;;5094678;28;20028;-36
2021/05/01 10:56:05;;;;;;;4.85;4.15;;;15.50;31.20;;;;;;5094476;28;20353;-37
2021/05/01 10:58:36;;;;;;;5.90;4.32;;;17.30;29.40;;;;;;5094804;28;20027;-37
2021/05/01 11:01:04;;;;;;;6.90;5.10;;;17.10;28.70;;;;;;5094633;28;20028;-38
2021/05/01 11:03:30;;;;;;;11.57;5.93;;;16.50;33.20;;;;;;5093444;28;20016;-37
2021/05/01 11:05:59;;;;;;;7.22;6.10;;;15.60;35.40;;;;;;5094579;28;20027;-47
2021/05/01 11:08:51;;;;;;;10.70;5.35;;;16.10;33.70;;;;;;5094619;28;20021;-37
2021/05/01 11:11:18;;;;;;;6.43;4.47;;;16.20;33.20;;;;;;5094474;28;20073;-38
2021/05/01 11:13:48;;;;;;;3.65;3.35;;;16.20;31.10;;;;;;5094662;28;20032;-38
2021/05/01 11:16:17;;;;;;;5.82;4.72;;;16.80;26.80;;;;;;5094127;28;20024;-38
2021/05/01 11:18:44;;;;;;;4.93;4.30;;;16.00;28.70;;;;;;5094125;28;20039;-37
2021/05/01 11:21:11;;;;;;;7.32;4.30;;;15.30;30.50;;;;;;5091835;28;20065;-38
2021/05/01 11:23:38;;;;;;;7.07;4.55;;;15.90;29.50;;;;;;5093792;28;20040;-36
2021/05/01 11:26:08;;;;;;;14.00;5.10;;;16.40;29.80;;;;;;5093834;28;20530;-37
2021/05/01 11:28:36;;;;;;;;;;;17.70;28.10;;;;;;5094641;28;20380;-36
2021/05/01 11:31:02;;;;;;;7.07;4.50;;;16.80;28.70;;;;;;5093710;28;19957;-38
2021/05/01 11:33:28;;;;;;;4.57;3.80;;;17.70;26.40;;;;;;5093812;28;20098;-37
2021/05/01 11:35:55;;;;;;;6.63;3.97;;;18.30;24.40;;;;;;5093656;28;20032;-38
2021/05/01 11:38:27;;;;;;;7.90;5.00;;;18.50;25.10;;;;;;5093811;28;20027;-38
2021/05/01 11:40:57;;;;;;;7.07;5.30;;;17.00;29.00;;;;;;5093660;28;20099;-36
2021/05/01 11:43:26;;;;;;;7.57;5.22;;;16.20;30.60;;;;;;5093918;28;20066;-37
2021/05/01 11:46:10;;;;;;;7.13;5.50;;;16.40;30.20;;;;;;5093388;28;20494;-37
2021/05/01 11:48:50;;;;;;;6.47;5.43;;;16.50;29.50;;;;;;5093336;28;20036;-37
2021/05/01 11:51:22;;;;;;;7.38;5.03;;;16.90;27.50;;;;;;5093552;28;20384;-37
2021/05/01 11:53:51;;;;;;;6.57;4.30;;;16.90;28.30;;;;;;5093682;28;20126;-37
2021/05/01 11:56:19;;;;;;;4.93;4.43;;;17.10;28.20;;;;;;5092113;28;20418;-37
2021/05/01 11:58:45;;;;;;;7.60;4.82;;;16.60;29.10;;;;;;5093555;28;20479;-37
2021/05/01 12:01:21;;;;;;;8.73;5.38;;;17.30;28.30;;;;;;5093352;28;20070;-36
2021/05/01 12:03:58;;;;;;;8.20;5.60;;;16.00;29.60;;;;;;5093441;28;20066;-36
2021/05/01 12:06:37;;;;;;;6.38;5.18;;;16.90;28.70;;;;;;5093400;28;20089;-42
2021/05/01 12:09:12;;;;;;;5.90;4.72;;;17.50;27.90;;;;;;5093257;28;20562;-36
2021/05/01 12:11:43;;;;;;;5.72;4.65;;;16.40;28.90;;;;;;5093318;28;20403;-37
2021/05/01 12:14:10;;;;;;;7.95;5.85;;;15.10;31.80;;;;;;5093032;28;20054;-36
2021/05/01 12:16:36;;;;;;;39.13;26.27;;;15.30;31.70;;;;;;5092861;28;20426;-37
2021/05/01 12:19:03;;;;;;;12.18;5.97;;;15.40;31.10;;;;;;5093294;28;20028;-37
2021/05/01 12:21:31;;;;;;;6.65;4.90;;;15.30;32.20;;;;;;5093274;28;20060;-37
2021/05/01 12:23:59;;;;;;;10.73;5.72;;;16.60;30.90;;;;;;5093984;28;20077;-38
2021/05/01 12:26:35;;;;;;;6.93;5.30;;;17.80;28.10;;;;;;5092818;28;20027;-37
2021/05/01 12:29:21;;;;;;;9.57;5.45;;;17.10;29.60;;;;;;5093704;28;20499;-36
2021/05/01 12:31:50;;;;;;;9.38;6.05;;;16.10;31.80;;;;;;5094385;28;20028;-37
2021/05/01 12:34:18;;;;;;;7.65;5.20;;;14.90;33.00;;;;;;5097034;28;20026;-36
2021/05/01 12:36:48;;;;;;;14.80;9.73;;;15.30;33.10;;;;;;5095772;28;20031;-36
2021/05/01 12:39:15;;;;;;;6.93;5.25;;;16.80;30.50;;;;;;5097272;28;20039;-38
2021/05/01 12:41:43;;;;;;;9.57;5.38;;;16.80;29.80;;;;;;5097321;28;20027;-37
2021/05/01 12:44:36;;;;;;;6.50;5.43;;;16.20;30.70;;;;;;5096862;28;20028;-36
2021/05/01 12:47:04;;;;;;;6.63;5.13;;;15.80;31.30;;;;;;5097311;28;20092;-37
2021/05/01 12:49:34;;;;;;;6.65;5.00;;;15.50;31.70;;;;;;5096880;28;20048;-36